Time;durP1;ratioP1;P1;durP2;ratioP2;P2;SDS_P1;SDS_P2;PMS_P1;PMS_P2;Temp;Humidity;BMP_temperature;BMP_pressure;BME280_temperature;BME280_humidity;BME280_pressure;Samples;Min_cycle;Max_cycle;Signal;HPM_P1;HPM_P2
2023/07/11 00:00:17;;;;;;;9.43;8.67;;;21.50;99.90;;;;;;5015463;28;20438;-74
2023/07/11 00:02:44;;;;;;;9.10;8.40;;;21.40;99.90;;;;;;5013802;28;20780;-74
2023/07/11 00:05:12;;;;;;;9.67;8.87;;;21.40;99.90;;;;;;5014920;28;20418;-74
2023/07/11 00:07:38;;;;;;;8.70;7.90;;;21.30;99.90;;;;;;5014253;28;20418;-73
2023/07/11 00:10:04;;;;;;;9.97;8.93;;;21.30;99.90;;;;;;5014974;28;20827;-74
2023/07/11 00:12:30;;;;;;;8.97;8.07;;;21.30;99.90;;;;;;5014816;28;20406;-74
2023/07/11 00:14:57;;;;;;;9.00;7.70;;;21.40;99.90;;;;;;5016952;28;20824;-74
2023/07/11 00:17:24;;;;;;;8.87;8.10;;;21.30;99.90;;;;;;5023084;28;20171;-73
2023/07/11 00:19:57;;;;;;;8.53;7.93;;;21.30;99.90;;;;;;5013430;28;20462;-74
2023/07/11 00:22:27;;;;;;;8.63;7.80;;;21.30;99.90;;;;;;5014077;28;20438;-74
2023/07/11 00:24:52;;;;;;;8.63;7.80;;;21.30;99.90;;;;;;5014842;28;20464;-73
2023/07/11 00:27:19;;;;;;;9.90;9.00;;;21.30;99.90;;;;;;5034374;28;20433;-74
2023/07/11 00:29:45;;;;;;;9.43;8.63;;;21.30;99.90;;;;;;5032575;28;20182;-73
2023/07/11 00:32:12;;;;;;;9.53;8.63;;;21.20;99.90;;;;;;5018602;28;20423;-74
2023/07/11 00:34:38;;;;;;;8.80;8.20;;;21.20;99.90;;;;;;4994100;28;20890;-73
2023/07/11 00:37:04;;;;;;;9.37;8.60;;;21.20;99.90;;;;;;4994991;28;20457;-74
2023/07/11 00:39:34;;;;;;;9.73;8.40;;;21.20;99.90;;;;;;5001392;28;20457;-65
2023/07/11 00:42:01;;;;;;;9.20;8.50;;;21.10;99.90;;;;;;5012664;28;20410;-74
2023/07/11 00:44:27;;;;;;;8.77;8.07;;;21.10;99.90;;;;;;4994555;28;20796;-73
2023/07/11 00:46:52;;;;;;;10.40;9.37;;;21.10;99.90;;;;;;5002558;28;20440;-74
2023/07/11 00:49:22;;;;;;;10.10;8.57;;;21.10;99.90;;;;;;5014117;28;21019;-74
2023/07/11 00:51:53;;;;;;;10.07;9.20;;;21.10;99.90;;;;;;5001929;28;20425;-72
2023/07/11 00:54:24;;;;;;;9.20;8.40;;;21.10;99.90;;;;;;5012671;28;20426;-73
2023/07/11 00:56:51;;;;;;;9.57;8.90;;;21.10;99.90;;;;;;5013316;28;20390;-74
2023/07/11 00:59:18;;;;;;;9.43;8.70;;;21.00;99.90;;;;;;4996126;28;20490;-74
2023/07/11 01:01:55;;;;;;;9.57;8.80;;;21.00;99.90;;;;;;4993834;28;20415;-74
2023/07/11 01:04:21;;;;;;;9.50;8.60;;;21.00;99.90;;;;;;4994497;28;20398;-74
2023/07/11 01:06:47;;;;;;;9.40;8.70;;;21.00;99.90;;;;;;5017207;28;20418;-73
2023/07/11 01:09:13;;;;;;;9.73;9.03;;;20.90;99.90;;;;;;5018036;28;20424;-73
2023/07/11 01:11:56;;;;;;;9.00;8.33;;;20.90;99.90;;;;;;5031998;28;20640;-65
2023/07/11 01:14:23;;;;;;;8.90;8.30;;;20.80;99.90;;;;;;5018916;28;20622;-73
2023/07/11 01:16:49;;;;;;;9.57;8.80;;;20.80;99.90;;;;;;5030846;28;20461;-73
2023/07/11 01:19:15;;;;;;;9.07;8.47;;;20.80;99.90;;;;;;5033338;28;20453;-73
2023/07/11 01:21:41;;;;;;;9.90;9.10;;;20.80;99.90;;;;;;5023295;28;20182;-73
2023/07/11 01:24:07;;;;;;;8.80;8.03;;;20.70;99.90;;;;;;5033146;28;20193;-73
2023/07/11 01:26:32;;;;;;;9.30;8.57;;;20.70;99.90;;;;;;5032974;28;20206;-73
2023/07/11 01:28:58;;;;;;;9.57;8.87;;;20.70;99.90;;;;;;5031643;28;20505;-73
2023/07/11 01:31:24;;;;;;;9.00;8.20;;;20.70;99.90;;;;;;5032334;28;20186;-73
2023/07/11 01:33:50;;;;;;;10.07;9.13;;;20.60;99.90;;;;;;5032349;28;20684;-73
2023/07/11 01:36:16;;;;;;;10.40;9.47;;;20.60;99.90;;;;;;5030890;28;20166;-73
2023/07/11 01:38:41;;;;;;;9.60;8.90;;;20.60;99.90;;;;;;5029880;28;20205;-72
2023/07/11 01:41:08;;;;;;;9.87;9.00;;;20.60;99.90;;;;;;5031302;28;20232;-73
2023/07/11 01:43:34;;;;;;;10.20;9.40;;;20.60;99.90;;;;;;5032248;28;20440;-73
2023/07/11 01:46:00;;;;;;;10.33;9.50;;;20.60;99.90;;;;;;5031905;28;20637;-73
2023/07/11 01:48:26;;;;;;;10.70;9.80;;;20.50;99.90;;;;;;5032793;28;20430;-73
2023/07/11 01:50:52;;;;;;;9.63;8.90;;;20.50;99.90;;;;;;5031529;28;20421;-74
2023/07/11 01:53:18;;;;;;;9.83;9.13;;;20.50;99.90;;;;;;5032538;28;20178;-74
2023/07/11 01:55:57;;;;;;;9.97;9.00;;;20.50;99.90;;;;;;5031540;28;20935;-73
2023/07/11 01:58:23;;;;;;;8.80;8.20;;;20.50;99.90;;;;;;5032248;28;20210;-73
2023/07/11 02:00:48;;;;;;;10.00;9.00;;;20.50;99.90;;;;;;5031056;28;20443;-73
2023/07/11 02:03:14;;;;;;;9.80;9.10;;;20.40;99.90;;;;;;5032302;28;20166;-73
2023/07/11 02:05:40;;;;;;;10.03;9.13;;;20.40;99.90;;;;;;5031937;28;20209;-65
2023/07/11 02:08:06;;;;;;;9.80;8.93;;;20.40;99.90;;;;;;5032064;28;20257;-74
2023/07/11 02:10:32;;;;;;;9.80;9.03;;;20.40;99.90;;;;;;5031209;28;20504;-74
2023/07/11 02:12:58;;;;;;;10.07;9.33;;;20.40;99.90;;;;;;5030317;28;20182;-73
2023/07/11 02:15:23;;;;;;;11.60;10.60;;;20.40;99.90;;;;;;5028057;28;20462;-74
2023/07/11 02:17:49;;;;;;;9.90;9.10;;;20.40;99.90;;;;;;5011511;28;20658;-74
2023/07/11 02:20:15;;;;;;;9.93;9.13;;;20.40;99.90;;;;;;5012364;28;20265;-74
2023/07/11 02:22:41;;;;;;;8.77;8.07;;;20.40;99.90;;;;;;5011634;28;20187;-65
2023/07/11 02:25:07;;;;;;;9.53;8.83;;;20.40;99.90;;;;;;5012082;28;20405;-74
2023/07/11 02:27:35;;;;;;;10.77;9.57;;;20.40;99.90;;;;;;5012276;28;20187;-74
2023/07/11 02:30:01;;;;;;;9.47;8.73;;;20.30;99.90;;;;;;5011261;28;20426;-73
2023/07/11 02:32:27;;;;;;;10.27;9.27;;;20.30;99.90;;;;;;5012745;28;20446;-73
2023/07/11 02:34:53;;;;;;;9.90;9.20;;;20.30;99.90;;;;;;5011794;28;20464;-73
2023/07/11 02:37:18;;;;;;;10.50;9.60;;;20.30;99.90;;;;;;5012602;28;20586;-73
2023/07/11 02:39:44;;;;;;;10.07;9.37;;;20.30;99.90;;;;;;4993240;28;20556;-71
2023/07/11 02:42:10;;;;;;;10.10;9.10;;;20.30;99.90;;;;;;5011794;28;20281;-73
2023/07/11 02:44:36;;;;;;;9.80;9.10;;;20.20;99.90;;;;;;5012348;28;20894;-73
2023/07/11 02:47:02;;;;;;;11.40;9.90;;;20.20;99.90;;;;;;5016652;28;20179;-72
2023/07/11 02:49:27;;;;;;;9.87;9.00;;;20.20;99.90;;;;;;5032121;28;20183;-72
2023/07/11 02:51:53;;;;;;;9.90;9.10;;;20.20;99.90;;;;;;5014775;28;20199;-72
2023/07/11 02:54:19;;;;;;;9.83;9.00;;;20.20;99.90;;;;;;5012286;28;20250;-73
2023/07/11 02:56:45;;;;;;;10.20;9.10;;;20.20;99.90;;;;;;5011475;28;20648;-65
2023/07/11 02:59:10;;;;;;;10.60;9.80;;;20.20;99.90;;;;;;5011933;28;20221;-72
2023/07/11 03:01:36;;;;;;;9.60;8.70;;;20.20;99.90;;;;;;5012263;28;20171;-73
2023/07/11 03:04:02;;;;;;;9.13;8.50;;;20.20;99.90;;;;;;5016704;28;20733;-72
2023/07/11 03:06:28;;;;;;;9.77;8.80;;;20.20;99.90;;;;;;5019109;28;20189;-73
2023/07/11 03:08:54;;;;;;;9.60;8.80;;;20.20;99.90;;;;;;5013672;28;20514;-71
2023/07/11 03:11:20;;;;;;;9.50;8.60;;;20.30;99.90;;;;;;5011377;28;20521;-73
2023/07/11 03:13:45;;;;;;;10.20;9.30;;;20.30;99.90;;;;;;5010678;28;20179;-64
2023/07/11 03:16:11;;;;;;;8.70;8.00;;;20.30;99.90;;;;;;5038948;28;20294;-73
2023/07/11 03:18:37;;;;;;;9.77;9.03;;;20.30;99.90;;;;;;5051560;28;20255;-73
2023/07/11 03:21:03;;;;;;;9.50;8.80;;;20.20;99.90;;;;;;5031752;28;20304;-73
2023/07/11 03:23:30;;;;;;;9.43;8.73;;;20.20;99.90;;;;;;5031235;28;20574;-73
2023/07/11 03:25:56;;;;;;;10.33;8.97;;;20.20;99.90;;;;;;5030550;28;20269;-73
2023/07/11 03:28:22;;;;;;;10.20;9.43;;;20.20;99.90;;;;;;5031287;28;20412;-71
2023/07/11 03:30:48;;;;;;;10.17;9.37;;;20.20;99.90;;;;;;5010891;28;20402;-72
2023/07/11 03:33:14;;;;;;;10.30;9.43;;;20.10;99.90;;;;;;5019071;28;20413;-74
2023/07/11 03:35:40;;;;;;;9.77;8.80;;;20.10;99.90;;;;;;5034060;28;20409;-74
2023/07/11 03:38:06;;;;;;;10.50;9.50;;;20.10;99.90;;;;;;5033809;28;20425;-73
2023/07/11 03:40:35;;;;;;;10.07;9.27;;;20.10;99.90;;;;;;5035486;28;20429;-74
2023/07/11 03:43:00;;;;;;;12.47;11.03;;;20.10;99.90;;;;;;5033717;28;20466;-71
2023/07/11 03:45:26;;;;;;;9.50;8.70;;;20.10;99.90;;;;;;5035111;28;20579;-73
2023/07/11 03:47:53;;;;;;;10.57;9.67;;;20.10;99.90;;;;;;5034005;28;20257;-73
2023/07/11 03:50:18;;;;;;;10.43;9.83;;;20.10;99.90;;;;;;5035057;28;20172;-72
2023/07/11 03:52:44;;;;;;;12.50;11.63;;;20.10;99.90;;;;;;5034197;28;20900;-64
2023/07/11 03:55:10;;;;;;;9.23;8.53;;;20.10;99.90;;;;;;5034078;28;20190;-73
2023/07/11 03:57:36;;;;;;;11.00;10.10;;;20.10;99.90;;;;;;5000794;28;20261;-74
2023/07/11 04:00:03;;;;;;;12.40;11.53;;;20.10;99.90;;;;;;5033471;28;20560;-74
2023/07/11 04:02:28;;;;;;;11.13;10.17;;;20.10;99.90;;;;;;5034269;28;20413;-73
2023/07/11 04:04:54;;;;;;;11.30;10.20;;;20.10;99.90;;;;;;5033950;28;20409;-73
2023/07/11 04:07:20;;;;;;;12.70;11.60;;;20.10;99.90;;;;;;5034538;28;20250;-73
2023/07/11 04:09:47;;;;;;;11.47;10.67;;;20.10;99.90;;;;;;5038450;28;20236;-65
2023/07/11 04:12:12;;;;;;;10.73;9.80;;;20.10;99.90;;;;;;5053731;28;20174;-70
2023/07/11 04:14:38;;;;;;;11.77;10.80;;;20.10;99.90;;;;;;5034213;28;20424;-73
2023/07/11 04:17:04;;;;;;;13.47;12.53;;;20.10;99.90;;;;;;5033323;28;20626;-73
2023/07/11 04:19:29;;;;;;;14.53;13.40;;;20.20;99.90;;;;;;5034064;28;20275;-73
2023/07/11 04:21:55;;;;;;;11.80;10.80;;;20.10;99.90;;;;;;5033676;28;20243;-73
2023/07/11 04:24:21;;;;;;;11.63;10.73;;;20.10;99.90;;;;;;5016190;28;20252;-74
2023/07/11 04:26:47;;;;;;;12.53;11.60;;;20.20;99.90;;;;;;5033189;28;20216;-66
2023/07/11 04:29:12;;;;;;;12.67;11.37;;;20.20;99.90;;;;;;5034142;28;20197;-74
2023/07/11 04:31:38;;;;;;;12.27;11.27;;;20.20;99.90;;;;;;5033701;28;20543;-74
2023/07/11 04:34:04;;;;;;;12.03;11.03;;;20.20;99.90;;;;;;5032888;28;20171;-73
2023/07/11 04:36:29;;;;;;;14.20;13.10;;;20.30;99.90;;;;;;5033947;28;20178;-73
2023/07/11 04:38:55;;;;;;;10.70;9.80;;;20.30;99.90;;;;;;5032920;28;20248;-73
2023/07/11 04:41:21;;;;;;;9.73;8.83;;;20.40;99.90;;;;;;5032225;28;20190;-73
2023/07/11 04:43:47;;;;;;;9.07;8.47;;;20.40;99.90;;;;;;5033906;28;20181;-74
2023/07/11 04:46:13;;;;;;;10.73;10.13;;;20.50;99.90;;;;;;5013315;28;20187;-73
2023/07/11 04:48:39;;;;;;;11.43;10.73;;;20.50;99.90;;;;;;5032963;28;20436;-74
2023/07/11 04:51:08;;;;;;;8.07;7.53;;;20.50;99.90;;;;;;5032033;28;20181;-74
2023/07/11 04:53:34;;;;;;;9.37;8.47;;;20.60;99.90;;;;;;5015534;28;20633;-74
2023/07/11 04:56:05;;;;;;;9.00;8.13;;;20.60;99.90;;;;;;5032743;28;20415;-74
2023/07/11 04:58:32;;;;;;;10.70;9.70;;;20.60;99.90;;;;;;5015122;28;20543;-73
2023/07/11 05:01:03;;;;;;;8.30;7.70;;;20.60;99.90;;;;;;5031618;28;20440;-74
2023/07/11 05:03:30;;;;;;;11.00;9.97;;;20.70;99.90;;;;;;5032304;28;20461;-74
2023/07/11 05:05:56;;;;;;;9.73;8.93;;;20.70;99.90;;;;;;5032463;28;20471;-73
2023/07/11 05:08:22;;;;;;;10.27;9.13;;;20.70;99.90;;;;;;5032911;28;20463;-74
2023/07/11 05:10:57;;;;;;;10.00;9.07;;;20.80;99.90;;;;;;5032210;28;20509;-72
2023/07/11 05:13:23;;;;;;;10.67;7.80;;;20.80;99.90;;;;;;5033246;28;20417;-74
2023/07/11 05:15:49;;;;;;;8.00;7.40;;;20.90;99.90;;;;;;5018935;28;20519;-65
2023/07/11 05:18:15;;;;;;;8.80;8.10;;;21.00;99.90;;;;;;4996420;28;20215;-73
2023/07/11 05:20:40;;;;;;;11.30;10.50;;;21.00;99.90;;;;;;5017457;28;20186;-73
2023/07/11 05:23:08;;;;;;;7.53;6.97;;;21.00;99.90;;;;;;5012681;28;20179;-74
2023/07/11 05:25:37;;;;;;;7.60;7.10;;;21.10;99.90;;;;;;5018701;28;20424;-74
2023/07/11 05:28:04;;;;;;;7.87;7.37;;;21.20;99.90;;;;;;5012045;28;20206;-74
2023/07/11 05:30:29;;;;;;;7.27;6.00;;;21.30;99.90;;;;;;5015065;28;20518;-74
2023/07/11 05:32:55;;;;;;;8.87;8.27;;;21.40;99.90;;;;;;5013700;28;20920;-73
2023/07/11 05:35:21;;;;;;;12.80;8.57;;;21.50;99.90;;;;;;5013609;28;20269;-74
2023/07/11 05:37:47;;;;;;;7.70;7.20;;;21.50;99.90;;;;;;5013306;28;20537;-74
2023/07/11 05:40:13;;;;;;;7.80;7.27;;;21.60;99.90;;;;;;5012154;28;20240;-73
2023/07/11 05:42:38;;;;;;;8.40;7.90;;;21.70;99.90;;;;;;5014510;28;20588;-74
2023/07/11 05:45:04;;;;;;;10.23;6.50;;;21.80;99.90;;;;;;5010905;28;20485;-73
2023/07/11 05:47:30;;;;;;;6.30;5.80;;;21.90;99.90;;;;;;4995699;28;20630;-74
2023/07/11 05:49:56;;;;;;;8.50;7.80;;;21.90;99.90;;;;;;5012211;28;20436;-73
2023/07/11 05:52:22;;;;;;;6.10;5.60;;;22.00;99.90;;;;;;5013006;28;20249;-73
2023/07/11 05:54:47;;;;;;;7.00;6.33;;;22.00;99.90;;;;;;5030108;28;20182;-74
2023/07/11 05:57:13;;;;;;;5.30;5.00;;;22.10;99.90;;;;;;5031556;28;20269;-74
2023/07/11 05:59:39;;;;;;;7.27;5.40;;;22.10;99.90;;;;;;5031641;28;20205;-75
2023/07/11 06:02:05;;;;;;;5.60;5.20;;;22.20;99.90;;;;;;5004162;28;20171;-74
2023/07/11 06:04:31;;;;;;;4.73;4.30;;;22.30;99.90;;;;;;5011948;28;20198;-73
2023/07/11 06:06:57;;;;;;;4.60;4.30;;;22.40;99.90;;;;;;5011989;28;20743;-72
2023/07/11 06:09:22;;;;;;;5.87;5.47;;;22.50;99.90;;;;;;5014816;28;20179;-74
2023/07/11 06:11:49;;;;;;;5.43;5.03;;;22.60;99.90;;;;;;5021544;28;20638;-74
2023/07/11 06:14:16;;;;;;;6.30;5.80;;;22.60;99.90;;;;;;4998671;28;20805;-75
2023/07/11 06:16:43;;;;;;;9.50;7.20;;;22.70;99.90;;;;;;5021404;28;20829;-75
2023/07/11 06:19:09;;;;;;;7.13;6.63;;;22.80;99.90;;;;;;5030972;28;20875;-68
2023/07/11 06:21:35;;;;;;;5.83;5.33;;;22.80;99.90;;;;;;5030248;28;20511;-66
2023/07/11 06:24:01;;;;;;;4.67;4.37;;;22.90;99.90;;;;;;5031468;28;20511;-67
2023/07/11 06:26:27;;;;;;;6.40;5.90;;;23.00;99.90;;;;;;5032186;28;20185;-68
2023/07/11 06:28:52;;;;;;;4.93;4.50;;;23.10;99.90;;;;;;5031775;28;20174;-67
2023/07/11 06:31:18;;;;;;;5.20;4.80;;;23.00;99.90;;;;;;5031239;28;20204;-67
2023/07/11 06:33:45;;;;;;;6.20;5.80;;;22.90;99.90;;;;;;5031508;28;20173;-71
2023/07/11 06:36:12;;;;;;;13.77;12.53;;;23.00;99.90;;;;;;5030290;28;20178;-71
2023/07/11 06:38:37;;;;;;;8.60;7.90;;;23.10;99.90;;;;;;5031141;28;20448;-68
2023/07/11 06:41:03;;;;;;;5.77;5.10;;;23.10;99.90;;;;;;5013308;28;20424;-71
2023/07/11 06:43:29;;;;;;;4.20;3.97;;;23.10;99.90;;;;;;5032089;28;20257;-71
2023/07/11 06:45:58;;;;;;;5.70;5.20;;;23.10;99.80;;;;;;5032063;28;20174;-65
2023/07/11 06:48:26;;;;;;;5.00;4.60;;;23.20;99.90;;;;;;5032019;28;20424;-67
2023/07/11 06:50:54;;;;;;;4.87;4.33;;;23.30;99.90;;;;;;5031788;28;20421;-68
2023/07/11 06:53:21;;;;;;;6.50;5.97;;;23.40;99.90;;;;;;5029710;28;20421;-66
2023/07/11 06:55:51;;;;;;;5.30;5.00;;;23.50;99.90;;;;;;5031493;28;20421;-66
2023/07/11 06:58:18;;;;;;;5.57;5.07;;;23.60;99.90;;;;;;5030722;28;20417;-63
2023/07/11 07:00:52;;;;;;;5.70;5.30;;;23.80;98.40;;;;;;5031482;28;20424;-63
2023/07/11 07:03:18;;;;;;;4.50;4.20;;;23.90;98.40;;;;;;5031149;28;20436;-63
2023/07/11 07:06:07;;;;;;;5.40;4.90;;;24.00;97.90;;;;;;5031356;28;20449;-63
2023/07/11 07:08:35;;;;;;;7.17;6.67;;;24.10;97.20;;;;;;5014365;28;20202;-63
2023/07/11 07:11:02;;;;;;;5.70;5.30;;;24.20;96.30;;;;;;5030416;28;20421;-63
2023/07/11 07:13:28;;;;;;;5.10;4.77;;;24.30;95.60;;;;;;5035309;28;20550;-62
2023/07/11 07:15:56;;;;;;;5.00;4.60;;;24.40;95.60;;;;;;5035068;28;20492;-63
2023/07/11 07:18:23;;;;;;;5.00;4.60;;;24.50;94.70;;;;;;5034936;28;20464;-65
2023/07/11 07:20:50;;;;;;;5.20;4.70;;;24.60;94.90;;;;;;5035700;28;20401;-63
2023/07/11 07:23:15;;;;;;;4.67;4.37;;;24.80;95.40;;;;;;5033832;28;20416;-63
2023/07/11 07:25:49;;;;;;;5.87;5.57;;;24.80;94.30;;;;;;5034970;28;20428;-63
2023/07/11 07:28:15;;;;;;;4.97;4.60;;;24.90;93.50;;;;;;5033326;28;20162;-62
2023/07/11 07:30:52;;;;;;;6.00;5.47;;;25.00;93.60;;;;;;5034394;28;20465;-62
2023/07/11 07:33:18;;;;;;;5.33;5.03;;;25.10;94.00;;;;;;5034062;28;20162;-63
2023/07/11 07:35:53;;;;;;;5.53;5.13;;;25.20;93.70;;;;;;5034296;28;20542;-62
2023/07/11 07:38:19;;;;;;;9.23;8.33;;;25.40;93.90;;;;;;5015575;28;20803;-62
2023/07/11 07:40:54;;;;;;;7.17;6.57;;;25.50;93.50;;;;;;5020329;28;20425;-62
2023/07/11 07:43:20;;;;;;;4.60;4.20;;;25.60;91.90;;;;;;5034311;28;20373;-62
2023/07/11 07:45:50;;;;;;;5.90;5.50;;;25.60;91.50;;;;;;5034559;28;20424;-62
2023/07/11 07:48:17;;;;;;;4.90;4.60;;;25.70;92.10;;;;;;5034248;28;20451;-62
2023/07/11 07:50:43;;;;;;;5.40;5.00;;;25.90;91.50;;;;;;5034572;28;20819;-62
2023/07/11 07:53:08;;;;;;;5.40;5.00;;;25.90;91.10;;;;;;5032826;28;20420;-63
2023/07/11 07:55:36;;;;;;;5.43;5.00;;;26.00;90.60;;;;;;5034771;28;20186;-63
2023/07/11 07:58:02;;;;;;;5.00;4.70;;;26.20;91.20;;;;;;5032998;28;20174;-63
2023/07/11 08:00:28;;;;;;;5.50;5.10;;;26.20;88.60;;;;;;5034168;28;20423;-67
2023/07/11 08:02:54;;;;;;;16.33;14.60;;;26.20;87.90;;;;;;5034498;28;20419;-67
2023/07/11 08:05:20;;;;;;;8.13;7.40;;;26.30;90.30;;;;;;5033611;28;20223;-67
2023/07/11 08:07:46;;;;;;;4.90;4.60;;;26.30;90.10;;;;;;5033332;28;20179;-66
2023/07/11 08:10:13;;;;;;;5.40;5.10;;;26.30;88.00;;;;;;5031023;28;20421;-66
2023/07/11 08:12:39;;;;;;;6.13;5.53;;;26.50;89.90;;;;;;5032587;28;20975;-66
2023/07/11 08:15:05;;;;;;;5.50;5.10;;;26.50;89.50;;;;;;5038203;28;20460;-66
2023/07/11 08:17:31;;;;;;;5.10;4.60;;;26.60;88.30;;;;;;5036622;28;20174;-66
2023/07/11 08:19:57;;;;;;;5.10;4.70;;;26.70;87.70;;;;;;5034302;28;20453;-66
2023/07/11 08:22:23;;;;;;;5.07;4.77;;;26.90;88.40;;;;;;5032857;28;20811;-66
2023/07/11 08:24:49;;;;;;;6.50;6.10;;;27.00;87.60;;;;;;5033949;28;20413;-66
2023/07/11 08:27:14;;;;;;;5.00;4.60;;;27.00;85.10;;;;;;5033496;28;20764;-66
2023/07/11 08:29:45;;;;;;;4.60;4.33;;;27.00;83.80;;;;;;5034083;28;20251;-66
2023/07/11 08:32:11;;;;;;;6.03;5.63;;;27.00;85.80;;;;;;5033151;28;20425;-66
2023/07/11 08:34:37;;;;;;;4.17;3.70;;;27.20;87.50;;;;;;5020248;28;20536;-66
2023/07/11 08:37:03;;;;;;;4.40;4.10;;;27.30;85.50;;;;;;5033780;28;20491;-66
2023/07/11 08:39:29;;;;;;;6.97;6.37;;;27.40;83.80;;;;;;5017264;28;20213;-66
2023/07/11 08:41:55;;;;;;;4.93;4.40;;;27.40;83.30;;;;;;5033542;28;20409;-66
2023/07/11 08:44:26;;;;;;;8.77;5.07;;;27.40;84.60;;;;;;5033305;28;20673;-67
2023/07/11 08:47:03;;;;;;;5.43;4.93;;;27.40;83.20;;;;;;5034145;28;20409;-67
2023/07/11 08:49:36;;;;;;;4.50;4.20;;;27.40;83.00;;;;;;5031846;28;20416;-66
2023/07/11 08:52:04;;;;;;;4.40;4.10;;;27.50;83.60;;;;;;5034987;28;20547;-66
2023/07/11 08:54:39;;;;;;;4.23;3.87;;;27.60;83.80;;;;;;5052488;28;20427;-66
2023/07/11 08:57:10;;;;;;;4.53;4.23;;;27.70;83.10;;;;;;5033921;28;21015;-65
2023/07/11 09:00:05;;;;;;;5.13;4.80;;;27.80;83.90;;;;;;5033908;28;20460;-67
2023/07/11 09:02:51;;;;;;;4.40;4.10;;;27.90;82.50;;;;;;5033902;28;20424;-66
2023/07/11 09:05:32;;;;;;;4.00;3.70;;;28.00;80.80;;;;;;5032148;28;20406;-66
2023/07/11 09:07:58;;;;;;;4.63;4.33;;;28.10;80.20;;;;;;5033983;28;20404;-67
2023/07/11 09:10:34;;;;;;;3.97;3.77;;;28.20;81.80;;;;;;5032984;28;20401;-66
2023/07/11 09:13:29;;;;;;;3.77;3.47;;;28.20;80.30;;;;;;5018842;28;20162;-66
2023/07/11 09:16:17;;;;;;;6.33;5.83;;;28.30;80.80;;;;;;4984275;28;20807;-67
2023/07/11 09:18:57;;;;;;;5.27;4.87;;;28.40;81.00;;;;;;5011543;28;20552;-66
2023/07/11 09:21:50;;;;;;;5.40;4.90;;;28.60;78.00;;;;;;5012846;28;20394;-67
2023/07/11 09:24:38;;;;;;;4.63;4.33;;;28.80;77.40;;;;;;5012901;28;20407;-67
2023/07/11 09:27:16;;;;;;;6.77;6.40;;;28.80;74.80;;;;;;5013307;28;20418;-66
2023/07/11 09:29:45;;;;;;;4.73;4.43;;;28.70;72.20;;;;;;5013960;28;20482;-66
2023/07/11 09:32:12;;;;;;;44.70;40.20;;;28.70;76.10;;;;;;5011896;28;20418;-66
2023/07/11 09:34:43;;;;;;;18.20;16.30;;;28.80;74.10;;;;;;5013416;28;20449;-67
2023/07/11 09:37:17;;;;;;;8.00;7.30;;;28.90;72.60;;;;;;5012619;28;20410;-65
2023/07/11 09:39:51;;;;;;;16.00;14.57;;;29.00;74.20;;;;;;5013290;28;20503;-66
2023/07/11 09:42:42;;;;;;;80.67;72.27;;;29.10;76.80;;;;;;5012841;28;20745;-66
2023/07/11 09:45:16;;;;;;;8.70;7.90;;;29.20;74.00;;;;;;5012701;28;20766;-65
2023/07/11 09:47:50;;;;;;;5.10;4.70;;;29.20;74.00;;;;;;5013335;28;20417;-67
2023/07/11 09:50:40;;;;;;;4.80;4.50;;;29.30;74.80;;;;;;5010663;28;20426;-67
2023/07/11 09:53:13;;;;;;;4.40;4.10;;;29.30;72.70;;;;;;5012802;28;20417;-66
2023/07/11 09:55:40;;;;;;;4.37;4.07;;;29.20;72.60;;;;;;5013152;28;20422;-67
2023/07/11 09:58:11;;;;;;;4.63;4.23;;;29.20;74.00;;;;;;5012796;28;20483;-66
2023/07/11 10:00:46;;;;;;;6.40;4.43;;;29.00;73.00;;;;;;5013064;28;20401;-71
2023/07/11 10:03:21;;;;;;;5.60;4.30;;;29.10;73.40;;;;;;5012190;28;20502;-70
2023/07/11 10:05:52;;;;;;;9.13;8.43;;;29.20;76.40;;;;;;5011847;28;20571;-71
2023/07/11 10:08:28;;;;;;;11.00;7.40;;;29.40;74.50;;;;;;5012095;28;20473;-71
2023/07/11 10:11:01;;;;;;;6.07;5.67;;;29.40;73.40;;;;;;5012849;28;20390;-71
2023/07/11 10:13:27;;;;;;;6.63;6.10;;;29.50;70.20;;;;;;5011004;28;20433;-71
2023/07/11 10:15:55;;;;;;;4.30;3.90;;;29.60;69.20;;;;;;5022908;28;20479;-71
2023/07/11 10:18:33;;;;;;;6.33;4.80;;;29.60;70.10;;;;;;5031572;28;20417;-71
2023/07/11 10:21:17;;;;;;;5.33;4.20;;;29.60;68.70;;;;;;5032624;28;20408;-71
2023/07/11 10:23:44;;;;;;;4.30;3.90;;;29.60;68.30;;;;;;5032314;28;20885;-71
2023/07/11 10:26:10;;;;;;;6.20;5.70;;;29.60;69.80;;;;;;5031806;28;20455;-67
2023/07/11 10:28:45;;;;;;;4.30;3.63;;;29.60;67.80;;;;;;5032335;28;20445;-71
2023/07/11 10:31:14;;;;;;;69.30;60.77;;;29.60;66.20;;;;;;5030759;28;20209;-67
2023/07/11 10:34:14;;;;;;;9.30;7.33;;;29.70;71.00;;;;;;5030290;28;20853;-70
2023/07/11 10:36:49;;;;;;;5.73;4.90;;;29.80;68.10;;;;;;5032317;28;20869;-71
2023/07/11 10:39:24;;;;;;;4.87;4.47;;;30.00;67.00;;;;;;5031360;28;20459;-70
2023/07/11 10:42:01;;;;;;;6.53;6.13;;;30.00;65.00;;;;;;5032335;28;20412;-70
2023/07/11 10:44:32;;;;;;;4.10;3.80;;;30.10;68.60;;;;;;5033974;28;20421;-71
2023/07/11 10:46:58;;;;;;;5.63;3.83;;;30.20;68.90;;;;;;5036099;28;20488;-70
2023/07/11 10:49:44;;;;;;;6.20;5.70;;;30.40;73.20;;;;;;5035167;28;20508;-70
2023/07/11 10:52:21;;;;;;;4.90;4.60;;;30.50;67.10;;;;;;5036017;28;20421;-70
2023/07/11 10:55:05;;;;;;;4.40;4.10;;;30.60;68.90;;;;;;5036481;28;20401;-71
2023/07/11 10:57:46;;;;;;;4.77;4.37;;;30.70;68.10;;;;;;5035252;28;20774;-71
2023/07/11 11:00:36;;;;;;;5.87;4.83;;;30.90;67.90;;;;;;5034489;28;20445;-68
2023/07/11 11:03:32;;;;;;;4.70;4.40;;;31.00;68.60;;;;;;5035182;28;20417;-71
2023/07/11 11:06:39;;;;;;;5.50;5.00;;;31.00;68.50;;;;;;5034883;28;20817;-71
2023/07/11 11:09:10;;;;;;;5.57;5.23;;;31.10;67.80;;;;;;5034557;28;20449;-70
2023/07/11 11:12:02;;;;;;;4.73;4.40;;;31.10;65.00;;;;;;5034608;28;20417;-71
2023/07/11 11:14:44;;;;;;;5.30;4.70;;;31.10;63.30;;;;;;5032567;28;20425;-71
2023/07/11 11:17:14;;;;;;;5.87;5.40;;;31.20;61.70;;;;;;5024304;28;20444;-68
2023/07/11 11:20:01;;;;;;;5.47;5.17;;;31.20;62.50;;;;;;5035302;28;21002;-71
2023/07/11 11:23:05;;;;;;;5.60;5.30;;;31.20;61.80;;;;;;5032011;28;20420;-70
2023/07/11 11:25:57;;;;;;;5.50;5.10;;;31.20;62.60;;;;;;5034480;28;20409;-71
2023/07/11 11:28:53;;;;;;;5.90;5.50;;;31.10;60.10;;;;;;5032874;28;20413;-71
2023/07/11 11:31:23;;;;;;;6.80;6.30;;;31.10;65.00;;;;;;5034041;28;20405;-71
2023/07/11 11:34:10;;;;;;;28.87;26.20;;;31.20;66.00;;;;;;5035647;28;20748;-71
2023/07/11 11:36:45;;;;;;;14.73;13.40;;;31.40;64.40;;;;;;5027438;28;20402;-71
2023/07/11 11:39:29;;;;;;;6.03;5.60;;;31.50;64.70;;;;;;5035479;28;20483;-67
2023/07/11 11:41:58;;;;;;;5.47;5.10;;;31.30;59.20;;;;;;5035531;28;20872;-67
2023/07/11 11:44:40;;;;;;;6.43;6.03;;;31.30;61.90;;;;;;5017464;28;20389;-67
2023/07/11 11:47:09;;;;;;;5.83;5.33;;;31.30;62.20;;;;;;5035650;28;20400;-67
2023/07/11 11:49:37;;;;;;;8.63;5.70;;;31.40;62.00;;;;;;5034937;28;20810;-66
2023/07/11 11:52:05;;;;;;;6.13;5.73;;;31.30;60.70;;;;;;5035228;28;20408;-67
2023/07/11 11:54:42;;;;;;;6.77;5.90;;;31.30;62.80;;;;;;5034602;28;20414;-67
2023/07/11 11:57:22;;;;;;;6.03;5.63;;;31.40;68.90;;;;;;5034009;28;20428;-67
2023/07/11 11:59:49;;;;;;;6.77;6.30;;;31.50;64.10;;;;;;5035187;28;20456;-66
2023/07/11 12:02:22;;;;;;;6.37;5.97;;;31.50;63.20;;;;;;5034657;28;20491;-66
2023/07/11 12:05:01;;;;;;;6.40;5.90;;;31.50;65.20;;;;;;5035228;28;20402;-68
2023/07/11 12:07:30;;;;;;;6.10;5.50;;;31.60;64.50;;;;;;5034604;28;20508;-66
2023/07/11 12:09:56;;;;;;;6.20;5.80;;;31.70;65.20;;;;;;5034889;28;20853;-66
2023/07/11 12:12:52;;;;;;;6.27;5.87;;;31.80;64.90;;;;;;5032941;28;20429;-66
2023/07/11 12:15:21;;;;;;;6.13;5.53;;;31.70;64.10;;;;;;5033673;28;20494;-66
2023/07/11 12:17:49;;;;;;;5.70;5.40;;;31.70;61.70;;;;;;5034524;28;20924;-66
2023/07/11 12:20:26;;;;;;;7.40;7.00;;;31.60;62.80;;;;;;5033746;28;20936;-66
2023/07/11 12:22:52;;;;;;;6.93;6.53;;;31.70;63.40;;;;;;5034433;28;20393;-67
2023/07/11 12:25:26;;;;;;;5.67;5.17;;;31.70;61.90;;;;;;5033787;28;20912;-66
2023/07/11 12:28:01;;;;;;;5.20;4.90;;;31.70;60.50;;;;;;5034575;28;20212;-66
2023/07/11 12:30:36;;;;;;;9.40;8.60;;;31.70;63.80;;;;;;5034280;28;20476;-67
2023/07/11 12:33:27;;;;;;;8.53;7.93;;;31.80;62.30;;;;;;5034789;28;20421;-65
2023/07/11 12:36:07;;;;;;;6.13;5.63;;;31.70;60.20;;;;;;5033718;28;20795;-65
2023/07/11 12:39:00;;;;;;;5.50;5.10;;;31.70;61.90;;;;;;5032574;28;20810;-64
2023/07/11 12:41:37;;;;;;;7.10;6.40;;;31.80;63.50;;;;;;5031395;28;20470;-65
2023/07/11 12:44:10;;;;;;;5.80;5.40;;;31.90;62.20;;;;;;5032215;28;20429;-65
2023/07/11 12:46:36;;;;;;;6.27;5.77;;;31.90;60.60;;;;;;5033382;28;20743;-64
2023/07/11 12:49:09;;;;;;;6.60;6.10;;;31.90;61.10;;;;;;5033987;28;20405;-65
2023/07/11 12:51:37;;;;;;;6.87;6.27;;;31.80;61.00;;;;;;5033294;28;20413;-65
2023/07/11 12:54:09;;;;;;;7.33;6.83;;;31.70;61.00;;;;;;5033507;28;20408;-65
2023/07/11 12:56:40;;;;;;;6.80;6.20;;;31.70;59.20;;;;;;5033037;28;20417;-64